Time;durP1;ratioP1;P1;durP2;ratioP2;P2;SDS_P1;SDS_P2;PMS_P1;PMS_P2;Temp;Humidity;BMP_temperature;BMP_pressure;BME280_temperature;BME280_humidity;BME280_pressure;Samples;Min_cycle;Max_cycle;Signal;HPM_P1;HPM_P2
2023/05/19 00:00:18;;;;;;;3.83;1.25;;;8.20;79.80;;;;;;5089593;28;20032;-57
2023/05/19 00:02:44;;;;;;;4.47;1.27;;;8.20;78.70;;;;;;5104390;28;20097;-58
2023/05/19 00:05:13;;;;;;;6.78;1.63;;;8.10;78.10;;;;;;5089932;28;20032;-59
2023/05/19 00:07:42;;;;;;;2.60;1.25;;;8.10;77.70;;;;;;5086516;28;20084;-59
2023/05/19 00:10:08;;;;;;;2.45;1.25;;;8.10;82.40;;;;;;5094662;28;20113;-58
2023/05/19 00:12:35;;;;;;;2.90;1.15;;;8.10;80.40;;;;;;5104336;28;20032;-58
2023/05/19 00:15:02;;;;;;;2.13;1.10;;;8.00;78.70;;;;;;5082752;27;20438;-60
2023/05/19 00:17:28;;;;;;;5.95;1.48;;;8.00;80.50;;;;;;5099574;28;20042;-58
2023/05/19 00:19:53;;;;;;;4.40;1.10;;;7.90;81.30;;;;;;5078280;28;20032;-59
2023/05/19 00:22:19;;;;;;;2.17;1.10;;;7.90;80.10;;;;;;5086173;28;20049;-59
2023/05/19 00:24:44;;;;;;;2.72;0.90;;;7.90;80.00;;;;;;5077273;28;20017;-59
2023/05/19 00:27:10;;;;;;;2.97;1.30;;;7.80;81.30;;;;;;5089971;28;20043;-58
2023/05/19 00:29:35;;;;;;;5.15;1.30;;;7.80;81.70;;;;;;5094795;28;20107;-58
2023/05/19 00:32:01;;;;;;;3.35;1.55;;;7.80;81.00;;;;;;5089319;28;20040;-58
2023/05/19 00:34:27;;;;;;;9.20;1.40;;;7.70;82.90;;;;;;5091917;28;20168;-58
2023/05/19 00:36:52;;;;;;;2.85;1.40;;;7.70;83.20;;;;;;5082023;28;20111;-59
2023/05/19 00:39:18;;;;;;;8.35;1.27;;;7.60;84.90;;;;;;5091740;28;20039;-58
2023/05/19 00:41:43;;;;;;;1.55;0.90;;;7.60;84.70;;;;;;5095494;28;20100;-61
2023/05/19 00:44:09;;;;;;;5.82;1.42;;;7.60;84.70;;;;;;5099908;28;20035;-57
2023/05/19 00:46:34;;;;;;;7.03;1.40;;;7.50;84.90;;;;;;5085068;28;20047;-60
2023/05/19 00:49:00;;;;;;;4.32;1.15;;;7.50;83.20;;;;;;5065987;28;20029;-59
2023/05/19 00:51:28;;;;;;;2.35;0.85;;;7.40;83.70;;;;;;5080112;28;20024;-58
2023/05/19 00:53:54;;;;;;;5.10;1.13;;;7.40;83.60;;;;;;5072629;28;20036;-55
2023/05/19 00:56:20;;;;;;;6.40;1.10;;;7.30;84.30;;;;;;5094339;28;20036;-55
2023/05/19 00:58:46;;;;;;;5.13;0.98;;;7.30;83.00;;;;;;5071770;28;20032;-56
2023/05/19 01:01:13;;;;;;;3.40;1.17;;;7.20;83.90;;;;;;5091804;28;20423;-56
2023/05/19 01:03:39;;;;;;;4.47;1.17;;;7.20;83.10;;;;;;5077085;28;20040;-54
2023/05/19 01:06:06;;;;;;;2.28;1.17;;;7.10;85.00;;;;;;5105735;28;20480;-56
2023/05/19 01:08:36;;;;;;;5.03;1.13;;;7.10;86.30;;;;;;5106833;28;20030;-58
2023/05/19 01:11:02;;;;;;;1.83;0.98;;;7.00;86.40;;;;;;5106361;28;20780;-56
2023/05/19 01:13:28;;;;;;;4.30;1.15;;;7.00;85.50;;;;;;5071470;28;20029;-55
2023/05/19 01:16:11;;;;;;;6.47;1.13;;;6.90;86.50;;;;;;5091894;28;20042;-56
2023/05/19 01:19:04;;;;;;;1.73;0.95;;;6.90;85.70;;;;;;5073112;28;20043;-57
2023/05/19 01:21:50;;;;;;;4.13;1.10;;;6.90;88.00;;;;;;5074300;28;20039;-56
2023/05/19 01:24:53;;;;;;;5.32;1.08;;;6.80;89.20;;;;;;5069426;28;20020;-58
2023/05/19 01:27:44;;;;;;;2.75;1.02;;;6.70;87.40;;;;;;5076319;28;20040;-56
2023/05/19 01:30:22;;;;;;;2.42;0.90;;;6.70;90.00;;;;;;5065827;28;20037;-56
2023/05/19 01:32:50;;;;;;;2.90;0.85;;;6.60;91.70;;;;;;5083505;28;20040;-56
2023/05/19 01:35:15;;;;;;;1.67;1.10;;;6.60;91.40;;;;;;5084153;28;20074;-56
2023/05/19 01:37:42;;;;;;;2.50;1.10;;;6.60;90.80;;;;;;5084299;28;20036;-56
2023/05/19 01:40:08;;;;;;;1.85;0.90;;;6.60;91.50;;;;;;5082400;28;20028;-57
2023/05/19 01:42:36;;;;;;;2.38;1.00;;;6.60;91.30;;;;;;5086081;28;20154;-56
2023/05/19 01:45:09;;;;;;;2.08;1.05;;;6.50;91.30;;;;;;5090673;28;20461;-54
2023/05/19 01:47:39;;;;;;;4.72;1.65;;;6.50;90.30;;;;;;5084865;28;20036;-56
2023/05/19 01:50:05;;;;;;;1.90;1.00;;;6.50;92.60;;;;;;5085752;28;20036;-55
2023/05/19 01:52:31;;;;;;;3.05;0.93;;;6.50;92.50;;;;;;5078464;28;20044;-56
2023/05/19 01:54:57;;;;;;;4.32;1.35;;;6.50;92.40;;;;;;5093439;28;20060;-58
2023/05/19 01:57:37;;;;;;;8.65;1.45;;;6.50;91.60;;;;;;5078780;28;20155;-56
2023/05/19 02:00:10;;;;;;;2.42;1.00;;;6.50;96.10;;;;;;5080862;28;20496;-56
2023/05/19 02:02:53;;;;;;;2.10;1.10;;;6.60;94.80;;;;;;5080530;28;20028;-56
2023/05/19 02:05:34;;;;;;;3.25;1.23;;;6.70;94.80;;;;;;5080295;28;20028;-56
2023/05/19 02:08:16;;;;;;;2.35;1.00;;;6.80;94.80;;;;;;5094041;28;20111;-55
2023/05/19 02:10:49;;;;;;;4.15;1.25;;;6.90;94.00;;;;;;5079053;28;20032;-56
2023/05/19 02:13:19;;;;;;;4.05;1.10;;;6.90;93.80;;;;;;5067441;28;20488;-56
2023/05/19 02:15:45;;;;;;;3.63;1.10;;;7.00;92.40;;;;;;5095177;28;20039;-56
2023/05/19 02:18:12;;;;;;;4.65;1.27;;;7.00;93.10;;;;;;5092378;28;20114;-58
2023/05/19 02:20:39;;;;;;;4.05;1.23;;;7.10;92.90;;;;;;5092253;28;20031;-56
2023/05/19 02:23:05;;;;;;;4.82;1.40;;;7.10;94.10;;;;;;5091582;28;20038;-55
2023/05/19 02:25:30;;;;;;;4.50;1.55;;;7.30;93.90;;;;;;5102934;28;20047;-57
2023/05/19 02:27:57;;;;;;;5.22;1.20;;;7.30;93.80;;;;;;5080593;28;20032;-55
2023/05/19 02:30:23;;;;;;;4.18;1.15;;;7.40;92.90;;;;;;5086567;28;20040;-55
2023/05/19 02:32:48;;;;;;;2.13;0.90;;;7.50;92.20;;;;;;5079134;28;20036;-56
2023/05/19 02:35:14;;;;;;;2.95;1.40;;;7.50;91.50;;;;;;5094941;28;20059;-56
2023/05/19 02:37:40;;;;;;;4.28;1.30;;;7.60;91.30;;;;;;5087409;28;20032;-56
2023/05/19 02:40:06;;;;;;;5.63;1.50;;;7.60;90.90;;;;;;5101333;28;20479;-56
2023/05/19 02:42:31;;;;;;;4.75;1.50;;;7.60;91.20;;;;;;5093615;28;20028;-56
2023/05/19 02:44:56;;;;;;;5.65;1.48;;;7.70;91.60;;;;;;5083754;28;20041;-56
2023/05/19 02:47:22;;;;;;;5.57;1.70;;;7.70;90.60;;;;;;5091758;28;20031;-55
2023/05/19 02:49:47;;;;;;;5.93;1.30;;;7.70;91.40;;;;;;5082386;28;20112;-55
2023/05/19 02:52:13;;;;;;;4.00;1.35;;;7.70;90.80;;;;;;5092268;28;20039;-57
2023/05/19 02:54:38;;;;;;;1.58;1.20;;;7.70;91.20;;;;;;5074492;28;20070;-57
2023/05/19 02:57:04;;;;;;;4.25;1.00;;;7.70;90.30;;;;;;5087813;28;20024;-55
2023/05/19 02:59:30;;;;;;;4.38;1.23;;;7.80;90.20;;;;;;5076497;28;20584;-54
2023/05/19 03:01:58;;;;;;;2.45;1.17;;;7.80;91.10;;;;;;5090531;28;20028;-55
2023/05/19 03:04:24;;;;;;;3.13;1.60;;;7.70;90.40;;;;;;5079504;28;20039;-56
2023/05/19 03:06:49;;;;;;;3.50;1.52;;;7.70;90.50;;;;;;5084694;28;20036;-56
2023/05/19 03:09:15;;;;;;;4.65;1.30;;;7.70;91.90;;;;;;5073812;28;20032;-56
2023/05/19 03:11:40;;;;;;;2.92;1.30;;;7.70;91.50;;;;;;5097301;28;20024;-56
2023/05/19 03:14:08;;;;;;;3.55;1.40;;;7.70;91.50;;;;;;5069652;28;20393;-57
2023/05/19 03:16:34;;;;;;;3.55;1.67;;;7.70;92.30;;;;;;5097852;28;20031;-55
2023/05/19 03:19:00;;;;;;;6.03;1.70;;;7.70;92.60;;;;;;5067118;28;20028;-57
2023/05/19 03:21:25;;;;;;;5.43;1.75;;;7.70;92.70;;;;;;5095358;28;20480;-56
2023/05/19 03:23:51;;;;;;;4.30;1.55;;;7.70;92.30;;;;;;5101040;28;20027;-56
2023/05/19 03:26:16;;;;;;;2.42;1.45;;;7.70;92.50;;;;;;5101474;28;20101;-56
2023/05/19 03:28:42;;;;;;;3.97;1.45;;;7.70;92.30;;;;;;5087383;28;20028;-57
2023/05/19 03:31:07;;;;;;;2.10;1.05;;;7.70;91.60;;;;;;5109457;28;20035;-56
2023/05/19 03:33:33;;;;;;;3.75;1.50;;;7.70;92.60;;;;;;5089314;28;20721;-57
2023/05/19 03:35:58;;;;;;;5.13;1.73;;;7.80;93.60;;;;;;5110186;28;20541;-57
2023/05/19 03:38:24;;;;;;;6.25;1.70;;;7.80;92.40;;;;;;5089258;28;20095;-56
2023/05/19 03:40:49;;;;;;;4.03;1.40;;;7.80;92.40;;;;;;5110190;28;20057;-57
2023/05/19 03:43:15;;;;;;;3.33;1.50;;;7.90;92.70;;;;;;5088889;28;20035;-56
2023/05/19 03:45:41;;;;;;;4.22;1.95;;;7.90;92.70;;;;;;5109861;28;20483;-56
2023/05/19 03:48:06;;;;;;;3.92;1.15;;;7.90;93.10;;;;;;5088966;27;20388;-55
2023/05/19 03:50:32;;;;;;;2.35;1.33;;;8.00;92.20;;;;;;5109646;28;20035;-56
2023/05/19 03:52:58;;;;;;;2.30;1.33;;;8.00;92.20;;;;;;5088792;28;20038;-56
2023/05/19 03:55:24;;;;;;;3.63;1.77;;;8.10;91.70;;;;;;5109783;28;20121;-57
2023/05/19 03:57:51;;;;;;;4.45;2.10;;;8.20;92.60;;;;;;5097894;28;20377;-56
2023/05/19 04:00:17;;;;;;;3.25;1.42;;;8.30;91.40;;;;;;5090378;28;20126;-57
2023/05/19 04:02:42;;;;;;;4.43;1.30;;;8.40;91.70;;;;;;5107635;28;20103;-57
2023/05/19 04:05:09;;;;;;;3.30;1.70;;;8.50;91.50;;;;;;5090432;28;20027;-57
2023/05/19 04:07:34;;;;;;;5.35;2.03;;;8.60;90.50;;;;;;5107534;28;20023;-57
2023/05/19 04:10:01;;;;;;;4.10;1.80;;;8.80;90.10;;;;;;5088836;28;20089;-57
2023/05/19 04:12:26;;;;;;;3.60;1.70;;;9.10;87.00;;;;;;5107459;28;20122;-58
2023/05/19 04:14:52;;;;;;;6.53;1.80;;;9.40;84.60;;;;;;5110188;28;20115;-57
2023/05/19 04:17:18;;;;;;;3.08;1.77;;;9.80;82.30;;;;;;5094096;28;20020;-57
2023/05/19 04:19:43;;;;;;;4.63;1.50;;;9.90;79.70;;;;;;5106943;28;20383;-57
2023/05/19 04:22:09;;;;;;;4.90;1.83;;;10.20;78.70;;;;;;5093316;28;20411;-57
2023/05/19 04:24:35;;;;;;;4.28;1.40;;;10.30;77.20;;;;;;5109884;28;20403;-58
2023/05/19 04:27:01;;;;;;;5.15;1.70;;;10.50;74.30;;;;;;5090308;28;20051;-58
2023/05/19 04:29:28;;;;;;;4.32;1.80;;;10.70;73.00;;;;;;5109744;28;20489;-57
2023/05/19 04:31:54;;;;;;;4.53;1.67;;;11.00;73.50;;;;;;5090972;28;20491;-58
2023/05/19 04:34:20;;;;;;;4.28;2.17;;;11.40;69.90;;;;;;5109831;28;20020;-57
2023/05/19 04:36:46;;;;;;;4.53;1.73;;;11.50;68.50;;;;;;5088402;28;20020;-57
2023/05/19 04:39:13;;;;;;;4.10;1.58;;;12.00;67.80;;;;;;5109698;28;20090;-57
2023/05/19 04:41:39;;;;;;;2.63;1.50;;;12.60;67.10;;;;;;5088455;28;20063;-57
2023/05/19 04:44:06;;;;;;;4.65;1.50;;;13.20;62.20;;;;;;5109781;28;20051;-57
2023/05/19 04:46:32;;;;;;;3.60;1.67;;;13.80;58.90;;;;;;5089511;28;20116;-57
2023/05/19 04:49:00;;;;;;;2.20;1.40;;;14.50;56.50;;;;;;5106264;28;20069;-58
2023/05/19 04:51:27;;;;;;;3.22;1.75;;;15.20;56.70;;;;;;5089533;28;20024;-58
2023/05/19 04:53:53;;;;;;;4.20;1.70;;;15.90;53.80;;;;;;5087688;28;20290;-57
2023/05/19 04:56:19;;;;;;;2.88;1.48;;;16.40;49.80;;;;;;5108855;28;20035;-58
2023/05/19 04:58:45;;;;;;;1.92;1.60;;;16.60;43.30;;;;;;5087795;28;20099;-58
2023/05/19 05:01:12;;;;;;;4.10;2.08;;;16.70;44.60;;;;;;5108632;28;20020;-58
2023/05/19 05:03:38;;;;;;;5.20;2.03;;;16.80;36.00;;;;;;5086204;28;20059;-58
2023/05/19 05:06:03;;;;;;;2.97;1.80;;;16.60;39.90;;;;;;5108676;28;20030;-58
2023/05/19 05:08:29;;;;;;;5.25;1.98;;;17.00;38.40;;;;;;5087596;28;20028;-58
2023/05/19 05:10:55;;;;;;;6.88;2.10;;;16.60;41.10;;;;;;5107192;28;20027;-58
2023/05/19 05:13:22;;;;;;;11.10;2.13;;;15.90;35.60;;;;;;5087550;28;20036;-58
2023/05/19 05:15:48;;;;;;;2.30;1.45;;;15.50;39.80;;;;;;5108775;28;20043;-58
2023/05/19 05:18:14;;;;;;;3.15;1.80;;;15.50;40.60;;;;;;5093973;28;20023;-57
2023/05/19 05:20:45;;;;;;;5.93;1.83;;;15.60;43.30;;;;;;5089178;28;20510;-58
2023/05/19 05:23:14;;;;;;;2.13;1.60;;;16.00;41.00;;;;;;5093258;28;20028;-58
2023/05/19 05:25:40;;;;;;;2.72;1.55;;;16.60;41.80;;;;;;5102770;28;20118;-58
2023/05/19 05:28:06;;;;;;;4.10;1.80;;;17.30;34.70;;;;;;5099770;28;20063;-58
2023/05/19 05:30:33;;;;;;;3.53;2.20;;;17.00;37.00;;;;;;5089234;28;20068;-57
2023/05/19 05:32:58;;;;;;;6.05;1.88;;;16.30;36.00;;;;;;5097562;28;20028;-58
2023/05/19 05:35:24;;;;;;;2.95;1.60;;;16.00;35.50;;;;;;5112493;28;20028;-58
2023/05/19 05:37:50;;;;;;;4.72;2.30;;;16.10;37.00;;;;;;5095801;28;20809;-58
2023/05/19 05:40:15;;;;;;;3.10;1.52;;;16.20;38.00;;;;;;5092569;28;20040;-57
2023/05/19 05:42:42;;;;;;;5.38;2.17;;;16.60;36.70;;;;;;5090749;28;20020;-58
2023/05/19 05:45:08;;;;;;;3.50;1.45;;;16.90;36.70;;;;;;5112654;28;20039;-58
2023/05/19 05:47:36;;;;;;;5.00;1.80;;;17.20;35.20;;;;;;5091051;28;20409;-60
2023/05/19 05:50:03;;;;;;;4.25;2.17;;;17.30;33.10;;;;;;5092721;28;20052;-59
2023/05/19 05:52:29;;;;;;;2.50;1.60;;;17.70;33.60;;;;;;5103538;28;20020;-59
2023/05/19 05:54:55;;;;;;;3.60;1.70;;;18.40;33.50;;;;;;5092744;28;20027;-49
2023/05/19 05:57:21;;;;;;;3.35;2.08;;;19.10;31.00;;;;;;5104402;28;20024;-59
2023/05/19 05:59:47;;;;;;;4.28;2.10;;;19.40;26.20;;;;;;5092524;28;20173;-60
2023/05/19 06:02:13;;;;;;;5.68;1.92;;;19.00;25.60;;;;;;5110368;28;20110;-59
2023/05/19 06:04:39;;;;;;;4.50;2.10;;;19.00;28.10;;;;;;5113014;28;20031;-60
2023/05/19 06:07:05;;;;;;;6.88;2.10;;;19.30;27.80;;;;;;5090939;28;20016;-60
2023/05/19 06:09:31;;;;;;;2.78;1.80;;;20.10;26.10;;;;;;5092429;28;20572;-59
2023/05/19 06:11:58;;;;;;;2.53;1.77;;;20.80;25.20;;;;;;5107531;28;20023;-59
2023/05/19 06:14:24;;;;;;;3.75;1.77;;;21.70;23.50;;;;;;5091133;28;20077;-60
2023/05/19 06:16:50;;;;;;;3.03;1.70;;;22.00;19.50;;;;;;5109977;28;20494;-60
2023/05/19 06:19:16;;;;;;;2.90;2.15;;;22.10;17.10;;;;;;5109799;28;20020;-59
2023/05/19 06:21:42;;;;;;;3.13;2.00;;;21.90;18.40;;;;;;5090657;28;20049;-60
2023/05/19 06:24:07;;;;;;;4.90;1.73;;;22.70;16.80;;;;;;5092013;28;20054;-60
2023/05/19 06:26:33;;;;;;;2.75;1.67;;;22.60;17.00;;;;;;5110068;28;20496;-60
2023/05/19 06:28:58;;;;;;;3.35;1.58;;;23.40;15.20;;;;;;5090658;28;20025;-61
2023/05/19 06:31:25;;;;;;;3.92;1.60;;;23.90;15.70;;;;;;5111450;28;20027;-60
2023/05/19 06:33:52;;;;;;;3.60;1.92;;;23.80;13.50;;;;;;5090597;28;20649;-60
2023/05/19 06:36:18;;;;;;;4.40;1.83;;;23.00;12.70;;;;;;5110163;28;20111;-59
2023/05/19 06:38:43;;;;;;;4.55;2.00;;;20.90;13.60;;;;;;5090530;28;20107;-60
2023/05/19 06:41:09;;;;;;;5.93;2.10;;;19.80;17.30;;;;;;5111350;28;20028;-60
2023/05/19 06:43:34;;;;;;;3.10;1.90;;;19.40;18.00;;;;;;5087624;28;20056;-60
2023/05/19 06:46:00;;;;;;;3.92;2.15;;;19.30;17.90;;;;;;5111645;28;20076;-60
2023/05/19 06:48:25;;;;;;;4.35;1.63;;;19.70;19.20;;;;;;5090334;28;20115;-59
2023/05/19 06:50:51;;;;;;;4.25;1.70;;;20.50;17.90;;;;;;5111245;28;20391;-60
2023/05/19 06:53:18;;;;;;;5.05;2.00;;;21.10;17.10;;;;;;5098637;28;20036;-59
2023/05/19 06:55:44;;;;;;;3.25;2.00;;;21.30;16.30;;;;;;5091801;28;20123;-60
2023/05/19 06:58:09;;;;;;;3.90;1.85;;;22.40;15.70;;;;;;5095093;28;20111;-60
2023/05/19 07:00:36;;;;;;;4.00;2.33;;;22.80;11.80;;;;;;5104186;28;20088;-60
2023/05/19 07:03:01;;;;;;;4.40;2.10;;;23.20;13.90;;;;;;5095380;28;20492;-59
2023/05/19 07:05:27;;;;;;;6.65;2.17;;;22.60;13.00;;;;;;5087638;28;20031;-60
2023/05/19 07:07:52;;;;;;;3.47;1.77;;;22.50;13.30;;;;;;5104072;28;20038;-60
2023/05/19 07:10:18;;;;;;;4.55;1.70;;;22.70;13.20;;;;;;5088174;28;20036;-60
2023/05/19 07:12:43;;;;;;;3.75;2.00;;;22.60;12.90;;;;;;5110547;28;20023;-59
2023/05/19 07:15:09;;;;;;;5.22;2.65;;;22.60;13.40;;;;;;5089718;28;20103;-60
2023/05/19 07:17:35;;;;;;;2.72;1.90;;;22.90;13.30;;;;;;5110532;28;20399;-59
2023/05/19 07:20:00;;;;;;;2.95;1.80;;;23.90;11.80;;;;;;5089369;28;20108;-60
2023/05/19 07:22:26;;;;;;;3.10;1.77;;;24.70;11.30;;;;;;5110370;28;20240;-59
2023/05/19 07:24:51;;;;;;;5.15;2.25;;;25.00;9.00;;;;;;5089550;28;20024;-60
2023/05/19 07:27:17;;;;;;;6.97;2.63;;;24.80;9.90;;;;;;5110444;28;20518;-60
2023/05/19 07:29:42;;;;;;;4.38;1.63;;;25.00;7.50;;;;;;5089375;28;20372;-60
2023/05/19 07:32:08;;;;;;;4.95;1.85;;;24.40;8.70;;;;;;5110022;28;20031;-59
2023/05/19 07:34:33;;;;;;;3.67;2.00;;;24.80;9.40;;;;;;5099313;28;20552;-59
2023/05/19 07:36:59;;;;;;;4.20;1.98;;;25.20;8.60;;;;;;5091093;28;20035;-59
2023/05/19 07:39:28;;;;;;;2.95;2.00;;;26.20;8.70;;;;;;5106943;28;20589;-59
2023/05/19 07:41:54;;;;;;;2.97;1.67;;;25.80;7.20;;;;;;5088639;27;20020;-59
2023/05/19 07:44:20;;;;;;;3.20;2.08;;;26.50;7.60;;;;;;5090446;28;20013;-60
2023/05/19 07:46:45;;;;;;;3.20;1.90;;;27.20;4.50;;;;;;5108110;28;20164;-60
2023/05/19 07:49:11;;;;;;;2.85;1.60;;;27.70;6.20;;;;;;5109443;28;20075;-60
2023/05/19 07:51:36;;;;;;;4.22;1.70;;;28.80;5.30;;;;;;5090825;28;20035;-60
2023/05/19 07:54:02;;;;;;;2.55;1.80;;;28.90;3.60;;;;;;5088419;28;20035;-60
2023/05/19 07:56:28;;;;;;;5.75;1.67;;;27.90;2.10;;;;;;5109154;28;20023;-60
2023/05/19 07:58:53;;;;;;;4.38;1.63;;;27.30;4.00;;;;;;5088859;28;20115;-60
2023/05/19 08:01:19;;;;;;;2.58;1.90;;;27.30;5.00;;;;;;5109860;28;20391;-60
2023/05/19 08:03:44;;;;;;;5.30;1.92;;;26.90;4.50;;;;;;5088825;28;20036;-61
2023/05/19 08:06:10;;;;;;;4.30;1.77;;;26.70;3.60;;;;;;5103832;28;20042;-61
2023/05/19 08:08:36;;;;;;;1.38;1.20;;;26.70;5.20;;;;;;5088676;28;20050;-61
2023/05/19 08:11:03;;;;;;;2.03;1.45;;;27.60;4.70;;;;;;5109260;28;20089;-61
2023/05/19 08:13:29;;;;;;;6.53;1.90;;;27.60;4.10;;;;;;5087005;28;20050;-60
2023/05/19 08:15:58;;;;;;;4.43;1.65;;;27.50;3.90;;;;;;5109470;28;20028;-61
2023/05/19 08:18:24;;;;;;;3.05;1.65;;;27.80;3.60;;;;;;5088029;28;20070;-60
2023/05/19 08:20:50;;;;;;;3.53;1.90;;;27.40;2.40;;;;;;5109461;28;20031;-60
2023/05/19 08:23:16;;;;;;;3.17;1.50;;;26.50;2.40;;;;;;5088377;28;20105;-60
2023/05/19 08:25:42;;;;;;;2.55;1.70;;;26.00;3.00;;;;;;5096193;28;20067;-60
2023/05/19 08:28:08;;;;;;;5.07;1.60;;;26.10;4.90;;;;;;5109116;28;20020;-60
2023/05/19 08:30:33;;;;;;;2.28;1.50;;;26.60;4.80;;;;;;5097579;27;20039;-60
2023/05/19 08:32:59;;;;;;;3.22;1.75;;;26.90;4.90;;;;;;5088209;28;20085;-61
2023/05/19 08:35:25;;;;;;;5.38;4.20;;;27.00;4.50;;;;;;5109208;28;20483;-60
2023/05/19 08:37:50;;;;;;;4.40;2.92;;;25.90;3.10;;;;;;5087594;28;20027;-61
2023/05/19 08:40:17;;;;;;;3.72;2.30;;;24.90;5.80;;;;;;5109103;28;20076;-60
2023/05/19 08:42:46;;;;;;;2.88;2.03;;;25.10;6.50;;;;;;5085954;28;20111;-60
2023/05/19 08:45:12;;;;;;;1.95;1.38;;;25.20;5.10;;;;;;5109342;28;20028;-60
2023/05/19 08:47:40;;;;;;;3.72;1.42;;;25.20;6.10;;;;;;5087850;28;20683;-60
2023/05/19 08:50:08;;;;;;;2.83;1.85;;;25.00;5.80;;;;;;5107895;28;20635;-61
2023/05/19 08:53:08;;;;;;;2.08;1.73;;;24.40;5.90;;;;;;5087607;28;20024;-61
2023/05/19 08:55:46;;;;;;;2.92;1.80;;;24.00;7.00;;;;;;5069269;28;20025;-59
2023/05/19 08:58:14;;;;;;;3.72;1.90;;;23.90;6.70;;;;;;5080233;28;20094;-59
2023/05/19 09:00:40;;;;;;;4.47;1.63;;;23.20;7.90;;;;;;5109229;28;20100;-59
2023/05/19 09:03:06;;;;;;;5.28;1.42;;;23.30;8.50;;;;;;5086094;28;20103;-59
2023/05/19 09:05:32;;;;;;;3.53;1.52;;;23.30;7.00;;;;;;5098863;28;20038;-59
2023/05/19 09:08:01;;;;;;;2.78;1.60;;;23.00;7.90;;;;;;5081197;28;20028;-59
2023/05/19 09:10:26;;;;;;;3.75;1.80;;;22.30;8.70;;;;;;5089077;28;20024;-60
2023/05/19 09:12:52;;;;;;;2.22;1.52;;;22.20;9.00;;;;;;5100064;28;20035;-59
2023/05/19 09:15:18;;;;;;;3.38;1.50;;;22.60;8.10;;;;;;5089129;28;20090;-59
2023/05/19 09:17:46;;;;;;;1.90;1.58;;;23.00;7.50;;;;;;5102573;28;20081;-60
2023/05/19 09:20:13;;;;;;;1.52;0.98;;;23.10;7.00;;;;;;5089167;28;20627;-59
2023/05/19 09:22:46;;;;;;;5.32;1.60;;;22.90;5.70;;;;;;5103468;28;20316;-59
2023/05/19 09:25:25;;;;;;;2.33;1.30;;;22.10;7.40;;;;;;5090638;28;20028;-59
2023/05/19 09:27:52;;;;;;;1.63;1.23;;;21.50;7.70;;;;;;5102410;28;20109;-60
2023/05/19 09:30:18;;;;;;;2.30;1.50;;;21.50;7.70;;;;;;5088798;28;20027;-59
2023/05/19 09:32:44;;;;;;;1.90;1.40;;;21.50;7.90;;;;;;5106608;28;20217;-59
2023/05/19 09:35:12;;;;;;;2.92;1.35;;;21.40;7.80;;;;;;5108036;28;20590;-59
2023/05/19 09:37:40;;;;;;;2.50;1.20;;;21.70;7.00;;;;;;5087552;28;20024;-60
2023/05/19 09:40:12;;;;;;;3.10;1.30;;;21.90;7.70;;;;;;5089090;28;20161;-59
2023/05/19 09:42:38;;;;;;;2.35;1.60;;;21.90;7.40;;;;;;5070134;28;20040;-59
2023/05/19 09:45:04;;;;;;;2.78;1.27;;;21.60;7.40;;;;;;5089030;28;20029;-59
2023/05/19 09:47:37;;;;;;;1.40;1.05;;;21.60;7.90;;;;;;5104464;28;20035;-60
2023/05/19 09:50:10;;;;;;;3.80;1.25;;;21.80;7.40;;;;;;5088813;28;20117;-59
2023/05/19 09:52:42;;;;;;;2.63;1.35;;;21.40;8.30;;;;;;5087035;28;20020;-59
2023/05/19 09:55:09;;;;;;;4.35;1.10;;;21.10;7.40;;;;;;5088917;28;20070;-59
2023/05/19 09:57:36;;;;;;;2.60;1.00;;;21.10;7.50;;;;;;5103592;28;20031;-59
2023/05/19 10:00:10;;;;;;;1.33;0.90;;;21.30;7.60;;;;;;5088836;28;20085;-59
2023/05/19 10:02:40;;;;;;;1.38;0.93;;;21.40;7.40;;;;;;5069713;28;20150;-59
2023/05/19 10:05:06;;;;;;;3.72;1.35;;;21.00;8.80;;;;;;5090444;28;20028;-60
2023/05/19 10:07:32;;;;;;;1.23;0.98;;;20.80;9.10;;;;;;5104739;28;20026;-58
2023/05/19 10:09:59;;;;;;;1.15;1.02;;;20.70;8.60;;;;;;5088650;28;20032;-59
2023/05/19 10:12:25;;;;;;;1.13;0.90;;;20.40;8.40;;;;;;5104878;28;20072;-58
2023/05/19 10:14:53;;;;;;;1.83;0.98;;;20.30;8.80;;;;;;5088698;28;20087;-59
2023/05/19 10:17:19;;;;;;;1.58;0.77;;;20.20;8.90;;;;;;5105955;28;20028;-59
2023/05/19 10:19:48;;;;;;;6.47;1.33;;;19.90;8.90;;;;;;5092032;28;20180;-59
2023/05/19 10:22:13;;;;;;;4.68;1.20;;;19.70;9.00;;;;;;5112040;28;20024;-58
2023/05/19 10:24:39;;;;;;;2.40;1.13;;;19.50;8.70;;;;;;5090768;28;20502;-58
2023/05/19 10:27:10;;;;;;;2.72;1.27;;;19.60;9.60;;;;;;5111433;28;20043;-59
2023/05/19 10:29:44;;;;;;;3.13;1.58;;;19.60;9.30;;;;;;5078044;28;20040;-59
2023/05/19 10:32:14;;;;;;;1.90;1.25;;;19.60;9.80;;;;;;5087284;28;20036;-59
2023/05/19 10:35:19;;;;;;;4.07;1.48;;;19.40;11.00;;;;;;5096127;28;20060;-59
2023/05/19 10:38:07;;;;;;;1.50;1.20;;;19.60;10.60;;;;;;5069222;28;20032;-58
2023/05/19 10:40:37;;;;;;;2.13;1.20;;;19.90;9.90;;;;;;5071469;28;20032;-59
2023/05/19 10:43:27;;;;;;;4.15;1.10;;;19.60;10.10;;;;;;5083755;28;20033;-59
2023/05/19 10:45:54;;;;;;;1.65;1.20;;;19.70;9.50;;;;;;5069120;28;20078;-59
2023/05/19 10:48:21;;;;;;;4.65;1.40;;;19.60;10.40;;;;;;5078332;28;20034;-59
2023/05/19 10:50:46;;;;;;;1.17;1.08;;;19.30;10.20;;;;;;5096160;28;20021;-58
2023/05/19 10:53:17;;;;;;;2.33;1.20;;;19.20;10.50;;;;;;5088186;28;20017;-58
2023/05/19 10:55:55;;;;;;;3.10;1.42;;;19.60;9.80;;;;;;5102221;28;20450;-58
2023/05/19 10:58:48;;;;;;;2.90;1.15;;;19.60;10.40;;;;;;5090247;28;20024;-58
2023/05/19 11:01:19;;;;;;;2.88;1.30;;;19.70;10.30;;;;;;5077308;28;20036;-58
2023/05/19 11:03:46;;;;;;;2.25;1.08;;;19.70;10.30;;;;;;5109881;28;20498;-58
2023/05/19 11:06:28;;;;;;;5.15;1.08;;;19.90;10.10;;;;;;5086877;28;20024;-58
2023/05/19 11:09:14;;;;;;;2.05;1.02;;;20.10;9.60;;;;;;5110975;28;20036;-59
2023/05/19 11:11:53;;;;;;;2.47;1.23;;;20.20;9.20;;;;;;5082110;28;20032;-58
2023/05/19 11:14:26;;;;;;;1.20;1.10;;;20.30;8.90;;;;;;5069718;28;20543;-58
2023/05/19 11:16:55;;;;;;;1.27;0.98;;;20.40;9.40;;;;;;5087205;28;20032;-58
2023/05/19 11:19:33;;;;;;;1.42;1.05;;;20.20;8.70;;;;;;5089807;28;20024;-58
2023/05/19 11:22:12;;;;;;;2.47;1.00;;;20.20;9.80;;;;;;5105547;28;20027;-59
2023/05/19 11:24:51;;;;;;;3.45;1.25;;;20.10;8.40;;;;;;5079570;28;20033;-59
2023/05/19 11:27:23;;;;;;;3.53;1.65;;;19.90;8.60;;;;;;5097677;28;20071;-58
2023/05/19 11:29:50;;;;;;;3.58;1.60;;;20.00;8.90;;;;;;5079191;28;20072;-59
2023/05/19 11:32:16;;;;;;;1.67;1.40;;;19.90;8.50;;;;;;5093272;28;20025;-58
2023/05/19 11:34:44;;;;;;;2.35;1.50;;;19.80;8.40;;;;;;5081475;28;20477;-59
2023/05/19 11:37:10;;;;;;;2.53;1.30;;;19.90;8.80;;;;;;5082807;28;20052;-59
2023/05/19 11:39:38;;;;;;;2.60;1.02;;;19.80;8.80;;;;;;5085464;28;20484;-59
2023/05/19 11:42:03;;;;;;;3.38;1.50;;;19.50;10.00;;;;;;5083078;28;20025;-59
2023/05/19 11:44:29;;;;;;;2.47;1.45;;;19.50;10.60;;;;;;5078806;28;20059;-58
2023/05/19 11:46:54;;;;;;;3.53;1.40;;;19.50;11.00;;;;;;5088896;28;20032;-59
2023/05/19 11:49:20;;;;;;;2.50;1.38;;;19.50;11.20;;;;;;5089906;28;20039;-59
2023/05/19 11:51:45;;;;;;;1.83;1.15;;;19.60;10.70;;;;;;5071320;28;20039;-59
2023/05/19 11:54:11;;;;;;;2.40;1.40;;;19.80;10.90;;;;;;5090501;28;20111;-59
2023/05/19 11:56:41;;;;;;;4.70;1.70;;;19.90;11.70;;;;;;5099859;28;20119;-58
2023/05/19 11:59:07;;;;;;;1.98;1.52;;;19.70;10.90;;;;;;5087006;28;20445;-58
2023/05/19 12:01:34;;;;;;;6.32;1.42;;;19.40;11.20;;;;;;5082388;28;20033;-49
2023/05/19 12:04:01;;;;;;;2.85;1.60;;;19.00;11.70;;;;;;5070787;28;20100;-50
2023/05/19 12:06:27;;;;;;;1.83;1.55;;;18.80;12.10;;;;;;5086860;28;20069;-51
2023/05/19 12:08:54;;;;;;;3.42;1.45;;;18.80;11.90;;;;;;5074765;28;20079;-52
2023/05/19 12:11:20;;;;;;;2.60;1.42;;;18.80;12.10;;;;;;5085431;28;20048;-47
2023/05/19 12:13:46;;;;;;;5.75;1.48;;;19.00;12.80;;;;;;5087960;28;20101;-48
2023/05/19 12:16:11;;;;;;;2.33;1.70;;;19.30;11.20;;;;;;5086769;28;20122;-49
2023/05/19 12:18:38;;;;;;;4.07;1.38;;;19.60;11.30;;;;;;5073760;28;20505;-51
2023/05/19 12:21:04;;;;;;;3.78;1.70;;;19.50;10.90;;;;;;5092087;28;20028;-47
2023/05/19 12:23:31;;;;;;;4.00;1.50;;;19.50;11.10;;;;;;5073084;28;20028;-53
2023/05/19 12:25:58;;;;;;;2.83;1.52;;;19.40;11.00;;;;;;5101578;28;20044;-49
2023/05/19 12:28:23;;;;;;;3.88;1.40;;;19.30;11.60;;;;;;5078259;28;20063;-52
2023/05/19 12:30:51;;;;;;;2.63;1.35;;;19.40;12.20;;;;;;5080444;28;20072;-52
2023/05/19 12:33:21;;;;;;;3.45;1.50;;;19.40;11.80;;;;;;5068086;28;20032;-51
2023/05/19 12:35:48;;;;;;;2.33;1.70;;;19.20;12.20;;;;;;5073714;28;20036;-49
2023/05/19 12:38:14;;;;;;;4.97;1.92;;;19.00;13.00;;;;;;5084976;28;20027;-50
2023/05/19 12:40:41;;;;;;;2.65;1.40;;;19.10;12.20;;;;;;5087513;28;20039;-51
2023/05/19 12:43:08;;;;;;;3.28;1.70;;;19.10;12.10;;;;;;5074940;28;20036;-49
2023/05/19 12:45:34;;;;;;;3.83;1.45;;;19.20;12.00;;;;;;5092738;28;20035;-52
2023/05/19 12:48:04;;;;;;;3.08;1.92;;;19.30;11.70;;;;;;5080435;28;20037;-52
2023/05/19 12:50:30;;;;;;;2.85;1.63;;;19.20;11.00;;;;;;5088621;28;20462;-51
2023/05/19 12:52:58;;;;;;;3.20;1.70;;;19.10;11.70;;;;;;5096594;28;20388;-47
2023/05/19 12:55:23;;;;;;;4.18;1.85;;;19.10;11.10;;;;;;5109213;28;20023;-52